Mitteilungen - Kartenansicht · Info · Telemetrie · Wetter · Rohdaten · Status · Baken · Mitteilungen · Nachrichten · durchsuchen · bewegend · Mein Benutzerkonto
Rufzeichen:
Zeige:

Lade message Pakete...

APRS Mitteilungen werden für 14 Tage gespeichert. Es ist möglich bei der Suche einen Platzhalter (*?) nach dem Präfix zu verwenden.

2019-04-23 18:37:39 EDT: LSXSVR>NWS-WARN: 232315z,SVR_STORM,MOC093-123-187
2019-04-23 18:37:39 EDT: LSXSVR>NWS_WARN: 232315z,SVR_STORM,MOC093-123-187
2019-04-23 18:37:40 EDT: JG6YCL>JA6IJW-9: %JF6JEU-9 JA6IJW-9, 6 km
2019-04-23 18:38:39 EDT: LSXSVR>NWS-WARN: 232315z,SVR_STORM,MOC093-123-187
2019-04-23 18:38:39 EDT: LSXSVR>NWS_WARN: 232315z,SVR_STORM,MOC093-123-187
2019-04-23 18:39:31 EDT: KJ4ERJ-E2>KJ4ERJ-AP: Bad temperature CRCs after 488 good (252~=56) on pin 6 index 1 from:9(193 1 75 70 127 255 14 16 56)
2019-04-23 18:39:32 EDT: KJ4ERJ-E2>KJ4ERJ-AP: CRC Restored after 2 bad (143==143) on pin 6 index 1 from:9(192 1 75 70 127 255 16 16 143)
2019-04-23 18:39:40 EDT: MAFSVR>NWS-WARN: 232315z,SVR_STORM,TXC103-461
2019-04-23 18:39:40 EDT: MAFSVR>NWS_WARN: 232315z,SVR_STORM,TXC103-461
2019-04-23 18:39:40 EDT: MAFSVR>NWS-WARN: 232330z,SVR_STORM,TXC033-115-227-317
2019-04-23 18:39:40 EDT: MAFSVR>NWS_WARN: 232330z,SVR_STORM,TXC033-115-227-317
2019-04-23 18:40:08 EDT: DB0LUH-1>LU1HVK-1: rejUISS54}
2019-04-23 18:40:16 EDT: KJ4ERJ-E2>KJ4ERJ-AP: Bad temperature CRCs after 30 good (123~=56) on pin 6 index 1 from:9(192 1 75 70 127 255 15 16 56)
2019-04-23 18:40:19 EDT: KJ4ERJ-E2>KJ4ERJ-AP: CRC Restored after 3 bad (56==56) on pin 6 index 1 from:9(193 1 75 70 127 255 15 16 56)
2019-04-23 18:40:21 EDT: JG6YCL>JI6FPP-9: %JF6GBH-5 JI6FPP-9, 10 km
2019-04-23 18:40:38 EDT: KE0BZG-7>KF7ITF-7: Good Test
2019-04-23 18:40:39 EDT: MAFSVR>NWS-WARN: 232300z,SVR_STORM,TXC173-227-335
2019-04-23 18:40:39 EDT: MAFSVR>NWS_WARN: 232300z,SVR_STORM,TXC173-227-335
2019-04-23 18:41:02 EDT: JJ5EQW-9>JN4HSC-9: GM fukamisan EQW
2019-04-23 18:41:10 EDT: JN4HSC-9>JJ5EQW-9: AA:TNX MSG !!
2019-04-23 18:41:12 EDT: VK2GJ-2>VK2GJ-7: Directs=VK2RHR-1 VK2AMW-1 VK2BWI-3
2019-04-23 18:41:16 EDT: KE4AZZ>N6DAN-7: hello
2019-04-23 18:41:17 EDT: KE4AZZ>N6DAN-7: hello
2019-04-23 18:41:37 EDT: LU1HVK-1>APRS: lu1hvk@qsl.net Saludos de Leones - Cordoba AR...
2019-04-23 18:41:39 EDT: KE0BZG-7>KF7ITF-7: Good Test
2019-04-23 18:41:39 EDT: SJTSVR>NWS-WARN: 232300z,SVR_STORM,TXC431
2019-04-23 18:41:39 EDT: SJTSVR>NWS_WARN: 232300z,SVR_STORM,TXC431
2019-04-23 18:41:40 EDT: N7QME-2>N7QME: hum 63 69 58 74 75 84 69 74
2019-04-23 18:41:40 EDT: KJ4DXK-9>KJ4ERJ-12: Hello World from the MiARM Project!
2019-04-23 18:41:45 EDT: KJ4ERJ-E2>KJ4ERJ-AP: Bad temperature CRCs after 56 good (41~=57) on pin 6 index 1 from:9(192 0 75 70 127 254 14 16 57)
2019-04-23 18:41:50 EDT: KJ4ERJ-E2>KJ4ERJ-AP: CRC Restored after 4 bad (56==56) on pin 6 index 1 from:9(193 1 75 70 127 255 15 16 56)
2019-04-23 18:41:53 EDT: JE6RDN-9>JG6NQR-9: GE O2desu! okiwotsukete!
2019-04-23 18:42:39 EDT: KE0BZG-7>KF7ITF-7: Good Test
2019-04-23 18:42:39 EDT: SJTSVR>NWS-WARN: 232245z,SVR_STORM,TXC253-353-441
2019-04-23 18:42:39 EDT: SJTSVR>NWS_WARN: 232245z,SVR_STORM,TXC253-353-441
2019-04-23 18:42:41 EDT: AS64636>DO4BZ: U:router.db0ahi [1]
2019-04-23 18:42:42 EDT: AS64636>DL1NE: U:router.db0ahi [2]
2019-04-23 18:42:42 EDT: AS64636>DG4OAE: U:router.db0ahi [3]
2019-04-23 18:42:52 EDT: G0RSQ>G4FKH: A,-101.3,-103.2,-104.4,B,-88,-96,-97.7,C,-101.1,-109.9,-110.9,D,-100.9,-103,-104.2,E,-102.6,-111.8,-113.2
2019-04-23 18:42:56 EDT: N7QME-2>N7QME: 13.93 82.4 37 15
2019-04-23 18:42:59 EDT: JE6RDN-9>JG6NQR-9: GE O2desu! okiwotsukete!
2019-04-23 18:43:10 EDT: JN4HSC-9>JJ5EQW-9: GM !!
2019-04-23 18:43:13 EDT: KJ4ERJ-E2>KJ4ERJ-AP: Bad temperature CRCs after 52 good (235~=47) on pin 6 index 1 from:9(195 1 75 70 127 255 12 16 47)
2019-04-23 18:43:14 EDT: KJ4ERJ-E2>KJ4ERJ-AP: CRC Restored after 2 bad (57==57) on pin 6 index 1 from:9(194 1 75 70 127 255 14 16 57)
2019-04-23 18:43:36 EDT: KJ4ERJ-E2>KJ4ERJ-AP: Bad temperature CRCs after 12 good (28~=57) on pin 6 index 1 from:9(194 1 75 70 127 247 14 16 57)
2019-04-23 18:43:37 EDT: KJ4ERJ-E2>KJ4ERJ-AP: CRC Restored after 2 bad (57==57) on pin 6 index 1 from:9(194 1 75 70 127 255 14 16 57)
2019-04-23 18:43:39 EDT: KE0BZG-7>KF7ITF-7: Good Test
2019-04-23 18:43:39 EDT: LSXSVR>NWS-WARN: 232315z,SVR_STORM,MOC093-123-187
2019-04-23 18:43:39 EDT: LSXSVR>NWS_WARN: 232315z,SVR_STORM,MOC093-123-187
2019-04-23 18:43:44 EDT: W5WE-1>EMAIL: w5we@qsl.net This is a test message
< vorhergehender
FAQ · Blog · Diskussionsgruppe · Link zu aprs.fi · AIS-Sites · Status des Servers · Datenbank Statistiken · Werbe auf aprs.fi · Technische Details · API · Änderungen · geplante Änderungen · Dank an · Nutzungsbedingungen · iPhone/iPad APRS